sensor_id;sensor_type;location;lat;lon;timestamp;temperature;humidity
27306;DHT22;14792;50.886;6.468;2022-09-09T00:02:36;15.40;99.90
27306;DHT22;14792;50.886;6.468;2022-09-09T00:05:44;15.50;99.90
27306;DHT22;14792;50.886;6.468;2022-09-09T00:08:56;15.60;99.90
27306;DHT22;14792;50.886;6.468;2022-09-09T00:12:14;15.50;99.90
27306;DHT22;14792;50.886;6.468;2022-09-09T00:15:20;15.50;99.90
27306;DHT22;14792;50.886;6.468;2022-09-09T00:18:48;15.60;99.90
27306;DHT22;14792;50.886;6.468;2022-09-09T00:21:48;15.40;99.90
27306;DHT22;14792;50.886;6.468;2022-09-09T00:27:48;15.30;99.90
27306;DHT22;14792;50.886;6.468;2022-09-09T00:30:49;15.30;99.90
27306;DHT22;14792;50.886;6.468;2022-09-09T00:33:50;15.30;99.90
27306;DHT22;14792;50.886;6.468;2022-09-09T00:36:52;15.40;99.90
27306;DHT22;14792;50.886;6.468;2022-09-09T00:39:54;15.40;99.90
27306;DHT22;14792;50.886;6.468;2022-09-09T00:43:06;15.30;99.90
27306;DHT22;14792;50.886;6.468;2022-09-09T00:49:28;15.40;99.90
27306;DHT22;14792;50.886;6.468;2022-09-09T00:52:32;15.30;99.90
27306;DHT22;14792;50.886;6.468;2022-09-09T00:55:36;15.30;99.90
27306;DHT22;14792;50.886;6.468;2022-09-09T00:58:34;15.30;99.90
27306;DHT22;14792;50.886;6.468;2022-09-09T01:01:36;15.20;99.90
27306;DHT22;14792;50.886;6.468;2022-09-09T01:04:38;15.20;99.90
27306;DHT22;14792;50.886;6.468;2022-09-09T01:07:40;15.20;99.90
27306;DHT22;14792;50.886;6.468;2022-09-09T01:10:50;15.20;99.90
27306;DHT22;14792;50.886;6.468;2022-09-09T01:13:58;15.20;99.90
27306;DHT22;14792;50.886;6.468;2022-09-09T01:16:56;15.20;99.90
27306;DHT22;14792;50.886;6.468;2022-09-09T01:20:13;15.20;99.90
27306;DHT22;14792;50.886;6.468;2022-09-09T01:26:19;15.10;99.90
27306;DHT22;14792;50.886;6.468;2022-09-09T01:29:19;15.10;99.90
27306;DHT22;14792;50.886;6.468;2022-09-09T01:32:42;15.10;99.90
27306;DHT22;14792;50.886;6.468;2022-09-09T01:35:53;15.10;99.90
27306;DHT22;14792;50.886;6.468;2022-09-09T01:38:54;15.00;99.90
27306;DHT22;14792;50.886;6.468;2022-09-09T01:41:55;15.00;99.90
27306;DHT22;14792;50.886;6.468;2022-09-09T01:44:57;15.00;99.90
27306;DHT22;14792;50.886;6.468;2022-09-09T01:47:58;14.90;99.90
27306;DHT22;14792;50.886;6.468;2022-09-09T01:51:00;14.90;99.90
27306;DHT22;14792;50.886;6.468;2022-09-09T01:54:02;14.90;99.90
27306;DHT22;14792;50.886;6.468;2022-09-09T02:00:19;15.00;99.90
27306;DHT22;14792;50.886;6.468;2022-09-09T02:03:23;14.90;99.90
27306;DHT22;14792;50.886;6.468;2022-09-09T02:09:24;15.00;99.90
27306;DHT22;14792;50.886;6.468;2022-09-09T02:12:26;15.00;99.90
27306;DHT22;14792;50.886;6.468;2022-09-09T02:22:11;15.20;99.90
27306;DHT22;14792;50.886;6.468;2022-09-09T02:25:13;15.20;99.90
27306;DHT22;14792;50.886;6.468;2022-09-09T02:28:14;15.20;99.90
27306;DHT22;14792;50.886;6.468;2022-09-09T02:31:20;15.30;99.90
27306;DHT22;14792;50.886;6.468;2022-09-09T02:34:17;15.30;99.90
27306;DHT22;14792;50.886;6.468;2022-09-09T02:37:19;15.30;99.90
27306;DHT22;14792;50.886;6.468;2022-09-09T02:40:20;15.40;99.90
27306;DHT22;14792;50.886;6.468;2022-09-09T02:43:22;15.50;99.90
27306;DHT22;14792;50.886;6.468;2022-09-09T02:53:29;15.70;99.90
27306;DHT22;14792;50.886;6.468;2022-09-09T02:56:27;15.70;99.90
27306;DHT22;14792;50.886;6.468;2022-09-09T02:59:28;15.70;99.90
27306;DHT22;14792;50.886;6.468;2022-09-09T03:02:29;15.70;99.90
27306;DHT22;14792;50.886;6.468;2022-09-09T03:05:31;15.70;99.90
27306;DHT22;14792;50.886;6.468;2022-09-09T03:08:32;15.80;99.90
27306;DHT22;14792;50.886;6.468;2022-09-09T03:11:34;15.80;99.90
27306;DHT22;14792;50.886;6.468;2022-09-09T03:14:36;15.80;99.90
27306;DHT22;14792;50.886;6.468;2022-09-09T03:17:37;15.80;99.90
27306;DHT22;14792;50.886;6.468;2022-09-09T03:20:39;15.80;99.90
27306;DHT22;14792;50.886;6.468;2022-09-09T03:23:40;15.80;99.90
27306;DHT22;14792;50.886;6.468;2022-09-09T03:26:42;15.90;99.90
27306;DHT22;14792;50.886;6.468;2022-09-09T03:29:43;15.90;99.90
27306;DHT22;14792;50.886;6.468;2022-09-09T03:32:45;15.90;99.90
27306;DHT22;14792;50.886;6.468;2022-09-09T03:35:47;16.00;99.90
27306;DHT22;14792;50.886;6.468;2022-09-09T03:38:51;16.00;99.90
27306;DHT22;14792;50.886;6.468;2022-09-09T03:41:52;16.00;99.90
27306;DHT22;14792;50.886;6.468;2022-09-09T03:44:54;16.00;99.90
27306;DHT22;14792;50.886;6.468;2022-09-09T03:47:55;16.00;99.90
27306;DHT22;14792;50.886;6.468;2022-09-09T03:50:57;16.10;99.90
27306;DHT22;14792;50.886;6.468;2022-09-09T03:53:59;16.10;99.90
27306;DHT22;14792;50.886;6.468;2022-09-09T03:57:00;16.10;99.90
27306;DHT22;14792;50.886;6.468;2022-09-09T04:00:05;16.10;99.90
27306;DHT22;14792;50.886;6.468;2022-09-09T04:03:06;16.10;99.90
27306;DHT22;14792;50.886;6.468;2022-09-09T04:06:08;16.10;99.90
27306;DHT22;14792;50.886;6.468;2022-09-09T04:09:09;16.10;99.90
27306;DHT22;14792;50.886;6.468;2022-09-09T04:12:11;16.10;99.90
27306;DHT22;14792;50.886;6.468;2022-09-09T04:15:12;16.10;99.90
27306;DHT22;14792;50.886;6.468;2022-09-09T04:18:14;16.10;99.90
27306;DHT22;14792;50.886;6.468;2022-09-09T04:21:15;16.10;99.90
27306;DHT22;14792;50.886;6.468;2022-09-09T04:24:17;16.20;99.90
27306;DHT22;14792;50.886;6.468;2022-09-09T04:27:19;16.20;99.90
27306;DHT22;14792;50.886;6.468;2022-09-09T04:30:20;16.20;99.90
27306;DHT22;14792;50.886;6.468;2022-09-09T04:33:25;16.20;99.90
27306;DHT22;14792;50.886;6.468;2022-09-09T04:36:23;16.20;99.90
27306;DHT22;14792;50.886;6.468;2022-09-09T04:39:25;16.30;99.90
27306;DHT22;14792;50.886;6.468;2022-09-09T04:42:26;16.30;99.90
27306;DHT22;14792;50.886;6.468;2022-09-09T04:45:28;16.30;99.90
27306;DHT22;14792;50.886;6.468;2022-09-09T04:48:30;16.30;99.90
27306;DHT22;14792;50.886;6.468;2022-09-09T04:51:31;16.30;99.90
27306;DHT22;14792;50.886;6.468;2022-09-09T04:54:33;16.30;99.90
27306;DHT22;14792;50.886;6.468;2022-09-09T04:57:34;16.30;99.90
27306;DHT22;14792;50.886;6.468;2022-09-09T05:00:36;16.40;99.90
27306;DHT22;14792;50.886;6.468;2022-09-09T05:03:38;16.40;99.90
27306;DHT22;14792;50.886;6.468;2022-09-09T05:06:39;16.40;99.90
27306;DHT22;14792;50.886;6.468;2022-09-09T05:09:41;16.30;99.90
27306;DHT22;14792;50.886;6.468;2022-09-09T05:12:42;16.30;99.90
27306;DHT22;14792;50.886;6.468;2022-09-09T05:15:51;16.30;99.90
27306;DHT22;14792;50.886;6.468;2022-09-09T05:18:46;16.30;99.90
27306;DHT22;14792;50.886;6.468;2022-09-09T05:21:47;16.30;99.90
27306;DHT22;14792;50.886;6.468;2022-09-09T05:24:49;16.30;99.90
27306;DHT22;14792;50.886;6.468;2022-09-09T05:27:50;16.40;99.90
27306;DHT22;14792;50.886;6.468;2022-09-09T05:31:05;16.40;99.90
27306;DHT22;14792;50.886;6.468;2022-09-09T05:34:02;16.30;99.90
27306;DHT22;14792;50.886;6.468;2022-09-09T05:37:04;16.30;99.90
27306;DHT22;14792;50.886;6.468;2022-09-09T05:40:05;16.30;99.90
27306;DHT22;14792;50.886;6.468;2022-09-09T05:43:07;16.30;99.90
27306;DHT22;14792;50.886;6.468;2022-09-09T05:46:10;16.30;99.90
27306;DHT22;14792;50.886;6.468;2022-09-09T05:49:10;16.30;99.90
27306;DHT22;14792;50.886;6.468;2022-09-09T05:52:12;16.30;99.90
27306;DHT22;14792;50.886;6.468;2022-09-09T05:55:13;16.30;99.90
27306;DHT22;14792;50.886;6.468;2022-09-09T05:58:15;16.30;99.90
27306;DHT22;14792;50.886;6.468;2022-09-09T06:01:18;16.20;99.90
27306;DHT22;14792;50.886;6.468;2022-09-09T06:04:18;16.30;99.90
27306;DHT22;14792;50.886;6.468;2022-09-09T06:07:20;16.30;99.90
27306;DHT22;14792;50.886;6.468;2022-09-09T06:10:21;16.30;99.90
27306;DHT22;14792;50.886;6.468;2022-09-09T06:13:23;16.30;99.90
27306;DHT22;14792;50.886;6.468;2022-09-09T06:16:25;16.40;99.90
27306;DHT22;14792;50.886;6.468;2022-09-09T06:19:26;16.50;99.90
27306;DHT22;14792;50.886;6.468;2022-09-09T06:22:28;16.60;99.90
27306;DHT22;14792;50.886;6.468;2022-09-09T06:25:29;16.70;99.90
27306;DHT22;14792;50.886;6.468;2022-09-09T06:28:34;16.90;99.90
27306;DHT22;14792;50.886;6.468;2022-09-09T06:31:35;16.90;99.90
27306;DHT22;14792;50.886;6.468;2022-09-09T06:34:37;17.00;99.90
27306;DHT22;14792;50.886;6.468;2022-09-09T06:37:38;17.20;99.90
27306;DHT22;14792;50.886;6.468;2022-09-09T06:40:40;17.30;99.90
27306;DHT22;14792;50.886;6.468;2022-09-09T06:43:41;17.30;99.90
27306;DHT22;14792;50.886;6.468;2022-09-09T06:46:43;17.40;99.90
27306;DHT22;14792;50.886;6.468;2022-09-09T06:49:45;17.40;99.90
27306;DHT22;14792;50.886;6.468;2022-09-09T06:52:46;17.50;99.90
27306;DHT22;14792;50.886;6.468;2022-09-09T06:55:48;17.80;99.90
27306;DHT22;14792;50.886;6.468;2022-09-09T06:58:50;18.00;99.90
27306;DHT22;14792;50.886;6.468;2022-09-09T07:01:51;18.20;99.90
27306;DHT22;14792;50.886;6.468;2022-09-09T07:04:52;18.20;99.90
27306;DHT22;14792;50.886;6.468;2022-09-09T07:07:54;18.30;99.90
27306;DHT22;14792;50.886;6.468;2022-09-09T07:11:04;18.40;99.90
27306;DHT22;14792;50.886;6.468;2022-09-09T07:14:04;18.70;99.90
27306;DHT22;14792;50.886;6.468;2022-09-09T07:17:06;18.80;99.90
27306;DHT22;14792;50.886;6.468;2022-09-09T07:20:08;19.00;99.90
27306;DHT22;14792;50.886;6.468;2022-09-09T07:23:09;19.20;99.90
27306;DHT22;14792;50.886;6.468;2022-09-09T07:26:14;19.10;99.90
27306;DHT22;14792;50.886;6.468;2022-09-09T07:29:12;19.10;99.90
27306;DHT22;14792;50.886;6.468;2022-09-09T07:32:16;19.40;99.90
27306;DHT22;14792;50.886;6.468;2022-09-09T07:35:18;19.40;99.90
27306;DHT22;14792;50.886;6.468;2022-09-09T07:38:20;19.30;99.90
27306;DHT22;14792;50.886;6.468;2022-09-09T07:44:23;19.00;99.90
27306;DHT22;14792;50.886;6.468;2022-09-09T07:47:24;19.00;99.90
27306;DHT22;14792;50.886;6.468;2022-09-09T07:50:26;19.00;99.90
27306;DHT22;14792;50.886;6.468;2022-09-09T07:53:28;18.90;99.90
27306;DHT22;14792;50.886;6.468;2022-09-09T07:56:30;18.90;99.90
27306;DHT22;14792;50.886;6.468;2022-09-09T07:59:31;19.10;99.90
27306;DHT22;14792;50.886;6.468;2022-09-09T08:02:32;19.50;99.90
27306;DHT22;14792;50.886;6.468;2022-09-09T08:05:34;19.60;99.90
27306;DHT22;14792;50.886;6.468;2022-09-09T08:08:36;19.40;99.90
27306;DHT22;14792;50.886;6.468;2022-09-09T08:11:37;19.20;99.90
27306;DHT22;14792;50.886;6.468;2022-09-09T08:14:39;19.10;99.90
27306;DHT22;14792;50.886;6.468;2022-09-09T08:17:40;19.10;99.90
27306;DHT22;14792;50.886;6.468;2022-09-09T08:20:42;19.10;99.90
27306;DHT22;14792;50.886;6.468;2022-09-09T08:23:44;19.00;99.90
27306;DHT22;14792;50.886;6.468;2022-09-09T08:26:46;19.00;99.90
27306;DHT22;14792;50.886;6.468;2022-09-09T08:29:47;19.00;99.90
27306;DHT22;14792;50.886;6.468;2022-09-09T08:32:48;19.20;99.90
27306;DHT22;14792;50.886;6.468;2022-09-09T08:35:50;19.10;99.90
27306;DHT22;14792;50.886;6.468;2022-09-09T08:38:55;19.00;99.90
27306;DHT22;14792;50.886;6.468;2022-09-09T08:45:12;19.00;99.90
27306;DHT22;14792;50.886;6.468;2022-09-09T08:51:27;19.00;99.90
27306;DHT22;14792;50.886;6.468;2022-09-09T08:54:32;19.10;99.90
27306;DHT22;14792;50.886;6.468;2022-09-09T08:57:30;19.10;99.90
27306;DHT22;14792;50.886;6.468;2022-09-09T09:00:45;19.10;99.90
27306;DHT22;14792;50.886;6.468;2022-09-09T09:11:11;19.00;99.90
27306;DHT22;14792;50.886;6.468;2022-09-09T09:13:43;19.10;99.90
27306;DHT22;14792;50.886;6.468;2022-09-09T09:16:49;19.10;99.90
27306;DHT22;14792;50.886;6.468;2022-09-09T09:19:47;19.10;99.90
27306;DHT22;14792;50.886;6.468;2022-09-09T09:22:49;19.10;99.90
27306;DHT22;14792;50.886;6.468;2022-09-09T09:25:50;19.00;99.90
27306;DHT22;14792;50.886;6.468;2022-09-09T09:28:53;19.10;99.90
27306;DHT22;14792;50.886;6.468;2022-09-09T09:31:56;19.40;99.90
27306;DHT22;14792;50.886;6.468;2022-09-09T09:34:58;20.10;99.90
27306;DHT22;14792;50.886;6.468;2022-09-09T09:37:59;20.30;99.90
27306;DHT22;14792;50.886;6.468;2022-09-09T09:41:01;20.20;99.90
27306;DHT22;14792;50.886;6.468;2022-09-09T09:44:02;20.10;99.90
27306;DHT22;14792;50.886;6.468;2022-09-09T09:47:14;20.20;99.90
27306;DHT22;14792;50.886;6.468;2022-09-09T09:50:17;20.40;99.90
27306;DHT22;14792;50.886;6.468;2022-09-09T09:53:28;20.70;99.90
27306;DHT22;14792;50.886;6.468;2022-09-09T09:56:29;20.40;99.90
27306;DHT22;14792;50.886;6.468;2022-09-09T09:59:36;20.50;99.90
27306;DHT22;14792;50.886;6.468;2022-09-09T10:02:39;20.80;99.90
27306;DHT22;14792;50.886;6.468;2022-09-09T10:05:44;20.60;99.90
27306;DHT22;14792;50.886;6.468;2022-09-09T10:08:44;20.50;99.90
27306;DHT22;14792;50.886;6.468;2022-09-09T10:21:56;20.30;99.90
27306;DHT22;14792;50.886;6.468;2022-09-09T10:28:27;20.50;99.90
27306;DHT22;14792;50.886;6.468;2022-09-09T10:34:50;20.30;99.90
27306;DHT22;14792;50.886;6.468;2022-09-09T10:38:14;20.10;99.90
27306;DHT22;14792;50.886;6.468;2022-09-09T10:41:16;20.00;99.90
27306;DHT22;14792;50.886;6.468;2022-09-09T10:44:24;19.90;99.90
27306;DHT22;14792;50.886;6.468;2022-09-09T10:47:29;19.80;99.90
27306;DHT22;14792;50.886;6.468;2022-09-09T10:50:32;19.80;99.90
27306;DHT22;14792;50.886;6.468;2022-09-09T10:57:08;20.10;99.90
27306;DHT22;14792;50.886;6.468;2022-09-09T11:00:05;20.20;99.90
27306;DHT22;14792;50.886;6.468;2022-09-09T11:03:06;20.30;99.90
27306;DHT22;14792;50.886;6.468;2022-09-09T11:06:18;20.30;99.90
27306;DHT22;14792;50.886;6.468;2022-09-09T11:09:26;20.20;99.90
27306;DHT22;14792;50.886;6.468;2022-09-09T11:12:25;20.20;99.90
27306;DHT22;14792;50.886;6.468;2022-09-09T11:15:31;20.30;99.90
27306;DHT22;14792;50.886;6.468;2022-09-09T11:18:31;20.30;99.90
27306;DHT22;14792;50.886;6.468;2022-09-09T11:21:37;20.20;99.90
27306;DHT22;14792;50.886;6.468;2022-09-09T11:24:38;20.10;99.90
27306;DHT22;14792;50.886;6.468;2022-09-09T11:34:38;20.10;99.90
27306;DHT22;14792;50.886;6.468;2022-09-09T11:41:16;20.10;99.90
27306;DHT22;14792;50.886;6.468;2022-09-09T11:44:19;20.10;99.90
27306;DHT22;14792;50.886;6.468;2022-09-09T11:47:29;20.30;99.90
27306;DHT22;14792;50.886;6.468;2022-09-09T11:50:36;20.40;99.90
27306;DHT22;14792;50.886;6.468;2022-09-09T11:53:53;20.40;99.90
27306;DHT22;14792;50.886;6.468;2022-09-09T11:56:53;20.30;99.90
27306;DHT22;14792;50.886;6.468;2022-09-09T11:59:55;20.30;99.90
27306;DHT22;14792;50.886;6.468;2022-09-09T12:02:57;20.00;99.90
27306;DHT22;14792;50.886;6.468;2022-09-09T12:05:58;19.90;99.90
27306;DHT22;14792;50.886;6.468;2022-09-09T12:09:19;19.60;99.90
27306;DHT22;14792;50.886;6.468;2022-09-09T12:12:23;19.00;99.90
27306;DHT22;14792;50.886;6.468;2022-09-09T12:15:28;18.60;99.90
27306;DHT22;14792;50.886;6.468;2022-09-09T12:18:35;18.50;99.90
27306;DHT22;14792;50.886;6.468;2022-09-09T12:21:38;18.50;99.90
27306;DHT22;14792;50.886;6.468;2022-09-09T12:24:40;18.60;99.90
27306;DHT22;14792;50.886;6.468;2022-09-09T12:27:48;18.60;99.90
27306;DHT22;14792;50.886;6.468;2022-09-09T12:30:55;18.80;99.90
27306;DHT22;14792;50.886;6.468;2022-09-09T12:33:54;18.80;99.90
27306;DHT22;14792;50.886;6.468;2022-09-09T12:36:58;19.00;99.90
27306;DHT22;14792;50.886;6.468;2022-09-09T12:40:00;19.10;99.90
27306;DHT22;14792;50.886;6.468;2022-09-09T12:42:59;19.10;99.90
27306;DHT22;14792;50.886;6.468;2022-09-09T12:46:01;19.10;99.90
27306;DHT22;14792;50.886;6.468;2022-09-09T12:49:02;19.20;99.90
27306;DHT22;14792;50.886;6.468;2022-09-09T12:52:04;19.40;99.90
27306;DHT22;14792;50.886;6.468;2022-09-09T12:55:05;19.40;99.90
27306;DHT22;14792;50.886;6.468;2022-09-09T12:58:07;19.30;99.90
27306;DHT22;14792;50.886;6.468;2022-09-09T13:01:17;19.50;99.90
27306;DHT22;14792;50.886;6.468;2022-09-09T13:04:20;19.50;99.90
27306;DHT22;14792;50.886;6.468;2022-09-09T13:07:18;19.50;99.90
27306;DHT22;14792;50.886;6.468;2022-09-09T13:10:24;19.70;99.90
27306;DHT22;14792;50.886;6.468;2022-09-09T13:13:29;19.80;99.90
27306;DHT22;14792;50.886;6.468;2022-09-09T13:16:30;19.90;99.90
27306;DHT22;14792;50.886;6.468;2022-09-09T13:19:29;20.00;99.90
27306;DHT22;14792;50.886;6.468;2022-09-09T13:22:37;19.90;99.90
27306;DHT22;14792;50.886;6.468;2022-09-09T13:25:38;19.90;99.90
27306;DHT22;14792;50.886;6.468;2022-09-09T13:28:40;19.90;99.90
27306;DHT22;14792;50.886;6.468;2022-09-09T13:31:41;20.00;99.90
27306;DHT22;14792;50.886;6.468;2022-09-09T13:34:52;20.30;99.90
27306;DHT22;14792;50.886;6.468;2022-09-09T13:37:53;20.50;99.90
27306;DHT22;14792;50.886;6.468;2022-09-09T13:41:00;20.40;99.90
27306;DHT22;14792;50.886;6.468;2022-09-09T13:43:59;20.40;99.90
27306;DHT22;14792;50.886;6.468;2022-09-09T13:53:22;21.30;99.90
27306;DHT22;14792;50.886;6.468;2022-09-09T13:56:23;21.40;99.90
27306;DHT22;14792;50.886;6.468;2022-09-09T13:59:25;20.80;99.90
27306;DHT22;14792;50.886;6.468;2022-09-09T14:02:27;20.50;99.90
27306;DHT22;14792;50.886;6.468;2022-09-09T14:05:30;20.20;99.90
27306;DHT22;14792;50.886;6.468;2022-09-09T14:08:30;20.00;99.90
27306;DHT22;14792;50.886;6.468;2022-09-09T14:11:31;19.90;99.90
27306;DHT22;14792;50.886;6.468;2022-09-09T14:14:33;20.00;99.90
27306;DHT22;14792;50.886;6.468;2022-09-09T14:17:35;20.00;99.90
27306;DHT22;14792;50.886;6.468;2022-09-09T14:20:37;20.00;99.90
27306;DHT22;14792;50.886;6.468;2022-09-09T14:23:38;19.80;99.90
27306;DHT22;14792;50.886;6.468;2022-09-09T14:26:39;19.70;99.90
27306;DHT22;14792;50.886;6.468;2022-09-09T14:29:41;19.60;99.90
27306;DHT22;14792;50.886;6.468;2022-09-09T14:32:43;19.50;99.90
27306;DHT22;14792;50.886;6.468;2022-09-09T14:35:44;19.70;99.90
27306;DHT22;14792;50.886;6.468;2022-09-09T14:38:46;19.90;99.90
27306;DHT22;14792;50.886;6.468;2022-09-09T14:41:47;20.00;99.90
27306;DHT22;14792;50.886;6.468;2022-09-09T14:44:49;20.20;99.90
27306;DHT22;14792;50.886;6.468;2022-09-09T14:47:50;19.90;99.90
27306;DHT22;14792;50.886;6.468;2022-09-09T14:50:52;19.80;99.90
27306;DHT22;14792;50.886;6.468;2022-09-09T14:53:55;19.60;99.90
27306;DHT22;14792;50.886;6.468;2022-09-09T14:56:55;19.80;99.90
27306;DHT22;14792;50.886;6.468;2022-09-09T14:59:57;20.20;99.90
27306;DHT22;14792;50.886;6.468;2022-09-09T15:02:58;20.10;99.90
27306;DHT22;14792;50.886;6.468;2022-09-09T15:06:10;19.90;99.90
27306;DHT22;14792;50.886;6.468;2022-09-09T15:09:02;19.70;99.90
27306;DHT22;14792;50.886;6.468;2022-09-09T15:12:03;19.60;99.90
27306;DHT22;14792;50.886;6.468;2022-09-09T15:15:05;19.60;99.90
27306;DHT22;14792;50.886;6.468;2022-09-09T15:18:06;19.50;99.90
27306;DHT22;14792;50.886;6.468;2022-09-09T15:21:17;19.70;99.90
27306;DHT22;14792;50.886;6.468;2022-09-09T15:24:16;19.60;99.90
27306;DHT22;14792;50.886;6.468;2022-09-09T15:27:17;19.60;99.90
27306;DHT22;14792;50.886;6.468;2022-09-09T15:30:19;19.60;99.90
27306;DHT22;14792;50.886;6.468;2022-09-09T15:33:21;19.90;99.90
27306;DHT22;14792;50.886;6.468;2022-09-09T15:36:23;19.40;99.90
27306;DHT22;14792;50.886;6.468;2022-09-09T15:39:24;19.20;99.90
27306;DHT22;14792;50.886;6.468;2022-09-09T15:42:25;19.10;99.90
27306;DHT22;14792;50.886;6.468;2022-09-09T15:45:27;19.10;99.90
27306;DHT22;14792;50.886;6.468;2022-09-09T15:48:31;19.20;99.90
27306;DHT22;14792;50.886;6.468;2022-09-09T15:51:33;19.00;99.90
27306;DHT22;14792;50.886;6.468;2022-09-09T15:54:35;19.10;99.90
27306;DHT22;14792;50.886;6.468;2022-09-09T15:57:36;19.00;99.90
27306;DHT22;14792;50.886;6.468;2022-09-09T16:00:38;18.90;99.90
27306;DHT22;14792;50.886;6.468;2022-09-09T16:03:40;18.90;99.90
27306;DHT22;14792;50.886;6.468;2022-09-09T16:06:41;18.80;99.90
27306;DHT22;14792;50.886;6.468;2022-09-09T16:09:43;18.80;99.90
27306;DHT22;14792;50.886;6.468;2022-09-09T16:12:44;18.80;99.90
27306;DHT22;14792;50.886;6.468;2022-09-09T16:15:53;18.90;99.90
27306;DHT22;14792;50.886;6.468;2022-09-09T16:18:48;18.90;99.90
27306;DHT22;14792;50.886;6.468;2022-09-09T16:21:49;19.00;99.90
27306;DHT22;14792;50.886;6.468;2022-09-09T16:24:51;19.00;99.90
27306;DHT22;14792;50.886;6.468;2022-09-09T16:27:52;18.90;99.90
27306;DHT22;14792;50.886;6.468;2022-09-09T16:30:54;18.90;99.90
27306;DHT22;14792;50.886;6.468;2022-09-09T16:33:55;19.00;99.90
27306;DHT22;14792;50.886;6.468;2022-09-09T16:36:57;19.00;99.90
27306;DHT22;14792;50.886;6.468;2022-09-09T16:39:58;19.00;99.90
27306;DHT22;14792;50.886;6.468;2022-09-09T16:43:00;19.00;99.90
27306;DHT22;14792;50.886;6.468;2022-09-09T16:46:12;19.00;99.90
27306;DHT22;14792;50.886;6.468;2022-09-09T16:49:12;18.90;99.90
27306;DHT22;14792;50.886;6.468;2022-09-09T16:52:14;18.80;99.90
27306;DHT22;14792;50.886;6.468;2022-09-09T16:55:15;18.70;99.90
27306;DHT22;14792;50.886;6.468;2022-09-09T16:58:17;18.70;99.90
27306;DHT22;14792;50.886;6.468;2022-09-09T17:01:18;18.60;99.90
27306;DHT22;14792;50.886;6.468;2022-09-09T17:04:26;18.50;99.90
27306;DHT22;14792;50.886;6.468;2022-09-09T17:07:24;18.40;99.90
27306;DHT22;14792;50.886;6.468;2022-09-09T17:10:26;18.40;99.90
27306;DHT22;14792;50.886;6.468;2022-09-09T17:13:27;18.30;99.90
27306;DHT22;14792;50.886;6.468;2022-09-09T17:16:30;18.30;99.90
27306;DHT22;14792;50.886;6.468;2022-09-09T17:19:31;18.20;99.90
27306;DHT22;14792;50.886;6.468;2022-09-09T17:22:32;18.10;99.90
27306;DHT22;14792;50.886;6.468;2022-09-09T17:25:34;18.10;99.90
27306;DHT22;14792;50.886;6.468;2022-09-09T17:28:36;18.00;99.90
27306;DHT22;14792;50.886;6.468;2022-09-09T17:31:37;17.90;99.90
27306;DHT22;14792;50.886;6.468;2022-09-09T17:34:39;17.90;99.90
27306;DHT22;14792;50.886;6.468;2022-09-09T17:37:40;17.90;99.90
27306;DHT22;14792;50.886;6.468;2022-09-09T17:40:42;17.80;99.90
27306;DHT22;14792;50.886;6.468;2022-09-09T17:43:44;17.70;99.90
27306;DHT22;14792;50.886;6.468;2022-09-09T17:46:45;17.60;99.90
27306;DHT22;14792;50.886;6.468;2022-09-09T17:49:46;17.50;99.90
27306;DHT22;14792;50.886;6.468;2022-09-09T17:52:48;17.40;99.90
27306;DHT22;14792;50.886;6.468;2022-09-09T17:55:50;17.30;99.90
27306;DHT22;14792;50.886;6.468;2022-09-09T17:58:51;17.30;99.90
27306;DHT22;14792;50.886;6.468;2022-09-09T18:01:53;17.30;99.90
27306;DHT22;14792;50.886;6.468;2022-09-09T18:04:54;17.30;99.90
27306;DHT22;14792;50.886;6.468;2022-09-09T18:07:56;17.20;99.90
27306;DHT22;14792;50.886;6.468;2022-09-09T18:10:58;17.20;99.90
27306;DHT22;14792;50.886;6.468;2022-09-09T18:14:00;17.10;99.90
27306;DHT22;14792;50.886;6.468;2022-09-09T18:17:01;17.10;99.90
27306;DHT22;14792;50.886;6.468;2022-09-09T18:20:02;17.10;99.90
27306;DHT22;14792;50.886;6.468;2022-09-09T18:23:04;17.10;99.90
27306;DHT22;14792;50.886;6.468;2022-09-09T18:26:06;17.00;99.90
27306;DHT22;14792;50.886;6.468;2022-09-09T18:29:13;16.90;99.90
27306;DHT22;14792;50.886;6.468;2022-09-09T18:32:09;16.80;99.90
27306;DHT22;14792;50.886;6.468;2022-09-09T18:35:10;16.80;99.90
27306;DHT22;14792;50.886;6.468;2022-09-09T18:38:12;16.70;99.90
27306;DHT22;14792;50.886;6.468;2022-09-09T18:41:17;16.70;99.90
27306;DHT22;14792;50.886;6.468;2022-09-09T18:44:19;16.70;99.90
27306;DHT22;14792;50.886;6.468;2022-09-09T18:47:20;16.70;99.90
27306;DHT22;14792;50.886;6.468;2022-09-09T18:50:21;16.60;99.90
27306;DHT22;14792;50.886;6.468;2022-09-09T18:53:23;16.60;99.90
27306;DHT22;14792;50.886;6.468;2022-09-09T18:56:25;16.60;99.90
27306;DHT22;14792;50.886;6.468;2022-09-09T18:59:26;16.60;99.90
27306;DHT22;14792;50.886;6.468;2022-09-09T19:02:27;16.60;99.90
27306;DHT22;14792;50.886;6.468;2022-09-09T19:05:29;16.60;99.90
27306;DHT22;14792;50.886;6.468;2022-09-09T19:08:41;16.60;99.90
27306;DHT22;14792;50.886;6.468;2022-09-09T19:11:32;16.60;99.90
27306;DHT22;14792;50.886;6.468;2022-09-09T19:14:34;16.60;99.90
27306;DHT22;14792;50.886;6.468;2022-09-09T19:17:35;16.60;99.90
27306;DHT22;14792;50.886;6.468;2022-09-09T19:20:37;16.50;99.90
27306;DHT22;14792;50.886;6.468;2022-09-09T19:23:39;16.60;99.90
27306;DHT22;14792;50.886;6.468;2022-09-09T19:26:42;16.50;99.90
27306;DHT22;14792;50.886;6.468;2022-09-09T19:29:42;16.50;99.90
27306;DHT22;14792;50.886;6.468;2022-09-09T19:32:43;16.50;99.90
27306;DHT22;14792;50.886;6.468;2022-09-09T19:35:45;16.50;99.90
27306;DHT22;14792;50.886;6.468;2022-09-09T19:38:47;16.50;99.90
27306;DHT22;14792;50.886;6.468;2022-09-09T19:41:48;16.50;99.90
27306;DHT22;14792;50.886;6.468;2022-09-09T19:44:50;16.50;99.90
27306;DHT22;14792;50.886;6.468;2022-09-09T19:47:51;16.50;99.90
27306;DHT22;14792;50.886;6.468;2022-09-09T19:50:53;16.50;99.90
27306;DHT22;14792;50.886;6.468;2022-09-09T19:53:58;16.50;99.90
27306;DHT22;14792;50.886;6.468;2022-09-09T19:56:59;16.60;99.90
27306;DHT22;14792;50.886;6.468;2022-09-09T20:00:00;16.50;99.90
27306;DHT22;14792;50.886;6.468;2022-09-09T20:03:02;16.50;99.90
27306;DHT22;14792;50.886;6.468;2022-09-09T20:06:04;16.50;99.90
27306;DHT22;14792;50.886;6.468;2022-09-09T20:09:05;16.50;99.90
27306;DHT22;14792;50.886;6.468;2022-09-09T20:12:06;16.40;99.90
27306;DHT22;14792;50.886;6.468;2022-09-09T20:15:08;16.40;99.90
27306;DHT22;14792;50.886;6.468;2022-09-09T20:18:10;16.30;99.90
27306;DHT22;14792;50.886;6.468;2022-09-09T20:21:12;16.30;99.90
27306;DHT22;14792;50.886;6.468;2022-09-09T20:24:13;16.30;99.90
27306;DHT22;14792;50.886;6.468;2022-09-09T20:27:14;16.30;99.90
27306;DHT22;14792;50.886;6.468;2022-09-09T20:30:16;16.20;99.90
27306;DHT22;14792;50.886;6.468;2022-09-09T20:33:18;16.20;99.90
27306;DHT22;14792;50.886;6.468;2022-09-09T20:36:20;16.20;99.90